createdAt,value
2018-09-29T00:00:00.648Z,68.03
2018-09-29T00:03:25.076Z,68.47
2018-09-29T00:06:49.569Z,68.65
2018-09-29T00:10:14.092Z,68.86
2018-09-29T00:13:38.482Z,69.63
2018-09-29T00:17:03.021Z,69.12
2018-09-29T00:20:27.465Z,69.37
2018-09-29T00:23:51.961Z,69.70
2018-09-29T00:27:16.369Z,70.12
2018-09-29T00:30:40.836Z,70.93
2018-09-29T00:34:05.441Z,69.77
2018-09-29T00:37:30.120Z,70.05
2018-09-29T00:40:54.523Z,70.27
2018-09-29T00:44:18.985Z,70.53
2018-09-29T00:47:43.409Z,70.52
2018-09-29T00:51:07.914Z,70.75
2018-09-29T00:54:32.336Z,70.71
2018-09-29T00:57:56.903Z,70.88
2018-09-29T01:01:21.353Z,70.96
2018-09-29T01:04:45.796Z,71.66
2018-09-29T01:08:10.264Z,70.84
2018-09-29T01:11:34.679Z,71.34
2018-09-29T01:14:59.601Z,71.88
2018-09-29T01:18:24.110Z,71.44
2018-09-29T01:21:48.549Z,71.49
2018-09-29T01:25:12.981Z,71.59
2018-09-29T01:28:37.973Z,71.43
2018-09-29T01:32:02.481Z,71.19
2018-09-29T01:35:26.949Z,72.25
2018-09-29T01:38:51.447Z,72.41
2018-09-29T01:42:15.884Z,71.91
2018-09-29T01:45:40.356Z,71.28
2018-09-29T01:49:04.932Z,71.70
2018-09-29T01:52:29.443Z,71.79
2018-09-29T01:55:53.908Z,71.61
2018-09-29T01:59:18.361Z,72.72
2018-09-29T02:02:42.797Z,73.06
2018-09-29T02:06:07.393Z,73.29
2018-09-29T02:09:31.874Z,73.17
2018-09-29T02:12:56.288Z,72.54
2018-09-29T02:16:20.760Z,72.40
2018-09-29T02:19:45.255Z,72.32
2018-09-29T02:23:09.971Z,73.33
2018-09-29T02:26:34.411Z,73.05
2018-09-29T02:29:58.881Z,72.89
2018-09-29T02:33:23.370Z,73.62
2018-09-29T02:36:47.894Z,73.80
2018-09-29T02:40:12.355Z,73.10
2018-09-29T02:43:36.820Z,73.19
2018-09-29T02:47:01.278Z,73.06
2018-09-29T02:50:25.721Z,73.58
2018-09-29T02:53:50.396Z,73.43
2018-09-29T02:57:14.904Z,73.65
2018-09-29T03:00:39.333Z,73.52
2018-09-29T03:04:03.858Z,73.43
2018-09-29T03:07:28.274Z,73.98
2018-09-29T03:10:52.681Z,74.09
2018-09-29T03:14:17.085Z,74.22
2018-09-29T03:17:41.543Z,73.99
2018-09-29T03:21:05.976Z,74.49
2018-09-29T03:24:30.428Z,74.68
2018-09-29T03:27:54.868Z,74.81
2018-09-29T03:31:19.278Z,74.90
2018-09-29T03:34:43.744Z,74.51
2018-09-29T03:38:08.544Z,75.00
2018-09-29T03:41:32.947Z,74.01
2018-09-29T03:44:57.458Z,74.36
2018-09-29T03:48:21.941Z,74.35
2018-09-29T03:51:46.447Z,74.51
2018-09-29T03:55:10.899Z,74.51
2018-09-29T03:58:35.355Z,75.25
2018-09-29T04:01:59.784Z,75.49
2018-09-29T04:05:24.209Z,74.56
2018-09-29T04:08:48.711Z,74.87
2018-09-29T04:12:13.144Z,74.63
2018-09-29T04:15:38.077Z,75.17
2018-09-29T04:19:02.520Z,74.74
2018-09-29T04:22:26.998Z,75.13
2018-09-29T04:25:51.705Z,74.55
2018-09-29T04:29:17.421Z,75.19
2018-09-29T04:32:41.941Z,75.27
2018-09-29T04:36:07.585Z,75.67
2018-09-29T04:39:37.265Z,75.11
2018-09-29T04:43:01.849Z,75.43
2018-09-29T04:46:26.568Z,75.56
2018-09-29T04:49:51.144Z,74.64
2018-09-29T04:53:15.558Z,74.91
2018-09-29T04:56:40.100Z,75.39
2018-09-29T05:00:05.007Z,75.02
2018-09-29T05:03:29.438Z,74.37
2018-09-29T05:06:53.937Z,74.87
2018-09-29T05:10:18.398Z,75.19
2018-09-29T05:13:42.810Z,74.78
2018-09-29T05:17:07.322Z,75.07
2018-09-29T05:20:31.912Z,75.54
2018-09-29T05:23:56.345Z,75.52
2018-09-29T05:27:21.166Z,74.84
2018-09-29T05:30:45.674Z,75.61
2018-09-29T05:34:10.076Z,75.64
2018-09-29T05:37:34.562Z,75.00
2018-09-29T05:40:59.054Z,74.96
2018-09-29T05:44:42.915Z,75.67
2018-09-29T05:48:07.520Z,75.50
2018-09-29T05:51:32.292Z,74.96
2018-09-29T05:54:56.770Z,74.94
2018-09-29T05:58:21.201Z,75.76
2018-09-29T06:01:45.688Z,75.59
2018-09-29T06:05:10.235Z,75.98
2018-09-29T06:08:34.754Z,76.12
2018-09-29T06:11:59.284Z,76.04
2018-09-29T06:15:23.774Z,75.92
2018-09-29T06:18:48.176Z,76.04
2018-09-29T06:22:12.633Z,75.65
2018-09-29T06:25:37.057Z,76.00
2018-09-29T06:29:01.481Z,75.34
2018-09-29T06:32:25.940Z,75.58
2018-09-29T06:35:51.479Z,75.54
2018-09-29T06:39:15.887Z,75.62
2018-09-29T06:42:40.442Z,75.44
2018-09-29T06:46:05.044Z,76.19
2018-09-29T06:49:29.533Z,75.31
2018-09-29T06:52:54.142Z,75.49
2018-09-29T06:56:18.556Z,75.33
2018-09-29T06:59:43.106Z,75.25
2018-09-29T07:03:07.637Z,74.69
2018-09-29T07:06:32.025Z,74.77
2018-09-29T07:09:56.503Z,73.94
2018-09-29T07:13:20.982Z,74.08
2018-09-29T07:16:45.444Z,73.61
2018-09-29T07:20:09.826Z,73.13
2018-09-29T07:23:34.292Z,72.90
2018-09-29T07:26:58.738Z,72.39
2018-09-29T07:30:23.172Z,72.14
2018-09-29T07:33:47.630Z,71.01
2018-09-29T07:37:12.084Z,69.78
2018-09-29T07:40:36.675Z,69.44
2018-09-29T07:44:01.255Z,69.29
2018-09-29T07:47:25.703Z,68.00
2018-09-29T07:50:51.188Z,67.96
2018-09-29T07:54:15.593Z,66.41
2018-09-29T07:57:40.050Z,65.93
2018-09-29T08:01:04.464Z,65.54
2018-09-29T08:04:28.898Z,64.37
2018-09-29T08:07:53.320Z,62.86
2018-09-29T08:11:17.833Z,63.30
2018-09-29T08:14:42.352Z,62.57
2018-09-29T08:18:06.781Z,62.02
2018-09-29T08:21:31.369Z,60.51
2018-09-29T08:24:55.796Z,60.61
2018-09-29T08:28:20.340Z,60.55
2018-09-29T08:31:44.852Z,59.92
2018-09-29T08:35:09.302Z,58.54
2018-09-29T08:38:33.916Z,56.28
2018-09-29T08:41:58.420Z,56.48
2018-09-29T08:45:22.858Z,56.40
2018-09-29T08:48:47.335Z,56.47
2018-09-29T08:52:11.833Z,54.53
2018-09-29T08:55:36.258Z,51.51
2018-09-29T08:59:00.729Z,54.04
2018-09-29T09:02:25.144Z,53.46
2018-09-29T09:05:49.568Z,52.70
2018-09-29T09:09:14.049Z,50.65
2018-09-29T09:12:38.498Z,49.76
2018-09-29T09:16:02.908Z,48.95
2018-09-29T09:19:27.332Z,46.98
2018-09-29T09:22:51.865Z,45.75
2018-09-29T09:26:16.220Z,45.07
2018-09-29T09:29:40.656Z,44.69
2018-09-29T09:33:05.087Z,44.50
2018-09-29T09:36:29.542Z,42.88
2018-09-29T09:39:53.986Z,40.92
2018-09-29T09:43:18.433Z,36.04
2018-09-29T09:46:42.856Z,32.25
2018-09-29T09:50:07.323Z,28.95
2018-09-29T09:53:31.726Z,26.52
2018-09-29T09:56:56.171Z,23.28
2018-09-29T10:00:22.099Z,23.09
2018-09-29T10:03:46.536Z,23.04
2018-09-29T10:07:10.972Z,22.14
2018-09-29T10:10:35.402Z,21.98
2018-09-29T10:13:59.806Z,20.01
2018-09-29T10:17:24.265Z,19.38
2018-09-29T10:20:48.619Z,18.26
2018-09-29T10:24:13.052Z,17.85
2018-09-29T10:27:37.511Z,18.46
2018-09-29T10:31:02.353Z,17.57
2018-09-29T10:34:26.795Z,19.02
2018-09-29T10:37:51.269Z,19.15
2018-09-29T10:41:15.684Z,17.62
2018-09-29T10:44:40.257Z,19.27
2018-09-29T10:48:04.706Z,18.07
2018-09-29T10:51:29.193Z,18.26
2018-09-29T10:54:53.742Z,18.21
2018-09-29T10:58:18.272Z,17.49
2018-09-29T11:01:42.833Z,17.89
2018-09-29T11:05:07.487Z,17.48
2018-09-29T11:08:31.887Z,17.27
2018-09-29T11:11:56.374Z,17.09
2018-09-29T11:15:20.851Z,16.25
2018-09-29T11:18:45.253Z,17.08
2018-09-29T11:22:09.727Z,16.36
2018-09-29T11:25:34.156Z,15.08
2018-09-29T11:28:58.605Z,16.08
2018-09-29T11:32:23.055Z,15.45
2018-09-29T11:35:47.621Z,14.73
2018-09-29T11:39:12.999Z,16.12
2018-09-29T11:42:37.413Z,16.31
2018-09-29T11:46:01.819Z,17.11
2018-09-29T11:49:26.348Z,16.65
2018-09-29T11:52:50.783Z,16.13
2018-09-29T11:56:15.370Z,15.27
2018-09-29T11:59:39.798Z,16.17
2018-09-29T12:03:04.277Z,15.45
2018-09-29T12:06:28.885Z,15.53
2018-09-29T12:09:53.344Z,14.96
2018-09-29T12:13:18.620Z,14.32
2018-09-29T12:16:43.273Z,14.60
2018-09-29T12:20:07.786Z,13.94
2018-09-29T12:23:32.280Z,13.38
2018-09-29T12:26:56.704Z,14.02
2018-09-29T12:30:21.145Z,12.61
2018-09-29T12:33:45.605Z,12.42
2018-09-29T12:37:10.195Z,12.07
2018-09-29T12:40:34.972Z,11.66
2018-09-29T12:43:59.394Z,11.47
2018-09-29T12:47:23.922Z,11.85
2018-09-29T12:50:48.442Z,10.89
2018-09-29T12:54:12.859Z,10.65
2018-09-29T12:57:37.426Z,10.69
2018-09-29T13:01:01.997Z,12.38
2018-09-29T13:04:26.611Z,11.63
2018-09-29T13:07:51.041Z,11.10
2018-09-29T13:11:15.557Z,14.32
2018-09-29T13:14:39.980Z,16.23
2018-09-29T13:18:04.471Z,18.73
2018-09-29T13:21:28.948Z,20.45
2018-09-29T13:24:53.387Z,22.22
2018-09-29T13:28:17.848Z,23.19
2018-09-29T13:31:42.343Z,23.26
2018-09-29T13:35:06.832Z,23.52
2018-09-29T13:38:31.247Z,23.87
2018-09-29T13:41:55.720Z,23.43
2018-09-29T13:45:20.145Z,23.53
2018-09-29T13:48:44.512Z,22.20
2018-09-29T13:52:08.936Z,20.92
2018-09-29T13:55:33.368Z,19.65
2018-09-29T13:58:57.839Z,17.94
2018-09-29T14:02:22.426Z,20.01
2018-09-29T14:05:46.736Z,17.60
2018-09-29T14:09:11.474Z,16.44
2018-09-29T14:12:35.970Z,17.93
2018-09-29T14:16:00.420Z,15.73
2018-09-29T14:19:24.898Z,12.64
2018-09-29T14:22:49.367Z,15.56
2018-09-29T14:26:13.820Z,16.28
2018-09-29T14:29:39.121Z,16.38
2018-09-29T14:33:03.577Z,14.12
2018-09-29T14:36:27.982Z,15.26
2018-09-29T14:39:52.392Z,16.60
2018-09-29T14:43:16.872Z,16.21
2018-09-29T14:46:41.318Z,17.40
2018-09-29T14:50:05.892Z,16.96
2018-09-29T14:53:30.333Z,16.48
2018-09-29T14:56:54.750Z,15.30
2018-09-29T15:00:19.252Z,16.81
2018-09-29T15:03:43.710Z,15.57
2018-09-29T15:07:08.162Z,17.47
2018-09-29T15:10:33.044Z,15.45
2018-09-29T15:13:57.565Z,17.66
2018-09-29T15:17:22.088Z,16.76
2018-09-29T15:20:46.551Z,14.91
2018-09-29T15:24:11.115Z,15.06
2018-09-29T15:27:35.651Z,14.16
2018-09-29T15:31:00.217Z,12.69
2018-09-29T15:34:24.735Z,12.18
2018-09-29T15:37:49.234Z,12.34
2018-09-29T15:41:13.676Z,12.53
2018-09-29T15:44:38.281Z,13.42
2018-09-29T15:48:02.851Z,12.93
2018-09-29T15:51:27.363Z,13.70
2018-09-29T15:54:51.862Z,14.02
2018-09-29T15:58:16.445Z,14.29
2018-09-29T16:01:40.970Z,16.98
2018-09-29T16:05:05.779Z,18.83
2018-09-29T16:08:30.330Z,19.00
2018-09-29T16:11:54.791Z,21.86
2018-09-29T16:15:19.237Z,24.70
2018-09-29T16:18:43.664Z,25.03
2018-09-29T16:22:08.179Z,27.05
2018-09-29T16:25:32.815Z,29.18
2018-09-29T16:28:57.305Z,27.48
2018-09-29T16:32:21.738Z,28.30
2018-09-29T16:35:46.225Z,29.70
2018-09-29T16:39:12.791Z,30.97
2018-09-29T16:42:37.285Z,29.83
2018-09-29T16:46:01.860Z,39.99
2018-09-29T16:49:26.419Z,39.98
2018-09-29T16:52:51.253Z,41.51
2018-09-29T16:56:16.012Z,40.62
2018-09-29T16:59:40.937Z,41.23
2018-09-29T17:03:06.364Z,41.50
2018-09-29T17:06:31.338Z,40.06
2018-09-29T17:09:55.971Z,41.93
2018-09-29T17:13:21.051Z,42.12
2018-09-29T17:16:45.912Z,40.83
2018-09-29T17:20:10.628Z,43.68
2018-09-29T17:23:35.277Z,41.06
2018-09-29T17:26:59.937Z,41.03
2018-09-29T17:30:24.464Z,41.27
2018-09-29T17:33:48.994Z,42.08
2018-09-29T17:37:13.499Z,42.85
2018-09-29T17:40:37.937Z,43.63
2018-09-29T17:44:02.679Z,41.99
2018-09-29T17:47:27.648Z,42.93
2018-09-29T17:50:52.178Z,43.97
2018-09-29T17:54:16.649Z,45.08
2018-09-29T17:57:41.058Z,44.61
2018-09-29T18:01:05.568Z,44.44
2018-09-29T18:04:30.094Z,43.82
2018-09-29T18:07:54.513Z,43.94
2018-09-29T18:11:18.922Z,45.39
2018-09-29T18:14:43.377Z,45.54
2018-09-29T18:18:08.769Z,47.37
2018-09-29T18:21:33.242Z,47.23
2018-09-29T18:24:59.440Z,47.29
2018-09-29T18:28:23.884Z,46.97
2018-09-29T18:31:48.409Z,45.77
2018-09-29T18:35:12.925Z,47.35
2018-09-29T18:38:38.022Z,48.27
2018-09-29T18:42:02.477Z,48.96
2018-09-29T18:45:26.920Z,49.04
2018-09-29T18:48:51.433Z,49.43
2018-09-29T18:52:17.690Z,49.12
2018-09-29T18:55:42.876Z,49.37
2018-09-29T18:59:07.385Z,49.73
2018-09-29T19:02:31.814Z,50.54
2018-09-29T19:05:56.344Z,50.56
2018-09-29T19:09:20.777Z,50.96
2018-09-29T19:12:47.208Z,51.96
2018-09-29T19:16:12.432Z,52.79
2018-09-29T19:19:39.446Z,52.49
2018-09-29T19:23:04.217Z,53.55
2018-09-29T19:26:28.988Z,53.44
2018-09-29T19:29:54.757Z,54.60
2018-09-29T19:33:19.774Z,53.86
2018-09-29T19:36:45.073Z,55.22
2018-09-29T19:40:10.482Z,55.17
2018-09-29T19:43:36.663Z,54.88
2018-09-29T19:47:02.423Z,55.37
2018-09-29T19:50:28.633Z,56.58
2018-09-29T19:53:53.159Z,55.80
2018-09-29T19:57:25.498Z,57.04
2018-09-29T20:00:50.171Z,56.54
2018-09-29T20:04:15.188Z,57.37
2018-09-29T20:07:40.690Z,56.72
2018-09-29T20:11:07.199Z,56.64
2018-09-29T20:14:32.743Z,57.26
2018-09-29T20:17:59.250Z,57.92
2018-09-29T20:21:25.353Z,58.25
2018-09-29T20:24:50.113Z,58.04
2018-09-29T20:28:15.101Z,58.07
2018-09-29T20:31:41.358Z,58.04
2018-09-29T20:35:06.869Z,59.06
2018-09-29T20:38:31.327Z,59.77
2018-09-29T20:41:56.689Z,59.41
2018-09-29T20:45:21.979Z,59.83
2018-09-29T20:48:46.623Z,59.70
2018-09-29T20:52:12.655Z,60.03
2018-09-29T20:55:39.026Z,59.77
2018-09-29T20:59:04.764Z,60.51
2018-09-29T21:02:30.853Z,60.06
2018-09-29T21:05:56.275Z,60.08
2018-09-29T21:09:21.657Z,60.16
2018-09-29T21:12:46.216Z,61.01
2018-09-29T21:16:12.786Z,60.05
2018-09-29T21:19:38.068Z,62.05
2018-09-29T21:23:02.601Z,60.26
2018-09-29T21:26:27.103Z,61.67
2018-09-29T21:29:51.585Z,62.21
2018-09-29T21:33:16.010Z,61.78
2018-09-29T21:36:40.441Z,61.79
2018-09-29T21:40:04.960Z,62.82
2018-09-29T21:43:29.441Z,62.77
2018-09-29T21:46:53.888Z,62.82
2018-09-29T21:50:18.320Z,63.41
2018-09-29T21:53:43.147Z,63.31
2018-09-29T21:57:07.890Z,63.57
2018-09-29T22:00:37.605Z,62.99
2018-09-29T22:04:03.388Z,63.50
2018-09-29T22:07:27.914Z,64.04
2018-09-29T22:10:52.338Z,64.64
2018-09-29T22:14:16.774Z,64.44
2018-09-29T22:17:41.187Z,64.79
2018-09-29T22:21:05.766Z,65.35
2018-09-29T22:24:30.539Z,65.03
2018-09-29T22:27:55.285Z,65.68
2018-09-29T22:31:19.696Z,65.80
2018-09-29T22:34:44.178Z,65.65
2018-09-29T22:38:08.764Z,65.83
2018-09-29T22:41:33.237Z,65.85
2018-09-29T22:44:57.933Z,66.31
2018-09-29T22:48:22.373Z,65.96
2018-09-29T22:51:46.740Z,67.12
2018-09-29T22:55:11.242Z,67.16
2018-09-29T22:58:35.718Z,66.62
2018-09-29T23:02:00.166Z,67.16
2018-09-29T23:05:24.580Z,67.93
2018-09-29T23:08:49.019Z,66.72
2018-09-29T23:12:13.486Z,67.62
2018-09-29T23:15:38.002Z,67.79
2018-09-29T23:19:02.502Z,68.20
2018-09-29T23:22:26.930Z,68.43
2018-09-29T23:25:51.376Z,67.91
2018-09-29T23:29:15.833Z,68.94
2018-09-29T23:32:40.338Z,68.59
2018-09-29T23:36:04.967Z,68.53
2018-09-29T23:39:29.406Z,68.56
2018-09-29T23:42:54.041Z,69.41
2018-09-29T23:46:18.434Z,69.95
2018-09-29T23:49:42.874Z,69.32
2018-09-29T23:53:07.881Z,69.35
2018-09-29T23:56:32.334Z,69.52
2018-09-29T23:59:56.751Z,69.78
